Terminal Aerodrome Forecast
Issued by NWS

Current Version | Previous Version | Graphics & Text | Print | Product List | Glossary On
Versions: 1 2 3 4 5 6 7 8 9 10 11 12 13 14 15 16 17 18 19
000
FTUS41 KPBZ 191700
TAFHLG
TAF
KHLG 191739Z 1918/2018 26006KT P6SM OVC015
     FM192200 28007KT P6SM OVC025
     FM200500 32004KT P6SM OVC025=

USA.gov is the U.S. government's official web portal to all federal, state and local government web resources and services.